sensor_id;sensor_type;location;lat;lon;timestamp;temperature;humidity
41882;DHT22;27562;47.524;12.404;2023-08-07T00:00:30;10.30;99.90
41882;DHT22;27562;47.524;12.404;2023-08-07T00:02:55;10.40;99.90
41882;DHT22;27562;47.524;12.404;2023-08-07T00:05:21;10.40;99.90
41882;DHT22;27562;47.524;12.404;2023-08-07T00:07:47;10.40;99.90
41882;DHT22;27562;47.524;12.404;2023-08-07T00:10:13;10.40;99.90
41882;DHT22;27562;47.524;12.404;2023-08-07T00:12:40;10.30;99.90
41882;DHT22;27562;47.524;12.404;2023-08-07T00:15:06;10.30;99.90
41882;DHT22;27562;47.524;12.404;2023-08-07T00:17:32;10.20;99.90
41882;DHT22;27562;47.524;12.404;2023-08-07T00:19:58;10.20;99.90
41882;DHT22;27562;47.524;12.404;2023-08-07T00:22:23;10.20;99.90
41882;DHT22;27562;47.524;12.404;2023-08-07T00:24:50;10.30;99.90
41882;DHT22;27562;47.524;12.404;2023-08-07T00:27:16;10.30;99.90
41882;DHT22;27562;47.524;12.404;2023-08-07T00:29:42;10.30;99.90
41882;DHT22;27562;47.524;12.404;2023-08-07T00:32:08;10.30;99.90
41882;DHT22;27562;47.524;12.404;2023-08-07T00:34:34;10.20;99.90
41882;DHT22;27562;47.524;12.404;2023-08-07T00:37:00;10.20;99.90
41882;DHT22;27562;47.524;12.404;2023-08-07T00:39:25;10.20;99.90
41882;DHT22;27562;47.524;12.404;2023-08-07T00:41:51;10.20;99.90
41882;DHT22;27562;47.524;12.404;2023-08-07T00:44:17;10.20;99.90
41882;DHT22;27562;47.524;12.404;2023-08-07T00:46:43;10.20;99.90
41882;DHT22;27562;47.524;12.404;2023-08-07T00:49:11;10.20;99.90
41882;DHT22;27562;47.524;12.404;2023-08-07T00:51:38;10.20;99.90
41882;DHT22;27562;47.524;12.404;2023-08-07T00:54:05;10.20;99.90
41882;DHT22;27562;47.524;12.404;2023-08-07T00:56:31;10.20;99.90
41882;DHT22;27562;47.524;12.404;2023-08-07T00:58:58;10.30;99.90
41882;DHT22;27562;47.524;12.404;2023-08-07T01:01:25;10.30;99.90
41882;DHT22;27562;47.524;12.404;2023-08-07T01:03:50;10.20;99.90
41882;DHT22;27562;47.524;12.404;2023-08-07T01:06:16;10.20;99.90
41882;DHT22;27562;47.524;12.404;2023-08-07T01:08:42;10.20;99.90
41882;DHT22;27562;47.524;12.404;2023-08-07T01:11:39;10.20;99.90
41882;DHT22;27562;47.524;12.404;2023-08-07T01:17:05;10.20;99.90
41882;DHT22;27562;47.524;12.404;2023-08-07T01:19:31;10.20;99.90
41882;DHT22;27562;47.524;12.404;2023-08-07T01:22:19;10.20;99.90
41882;DHT22;27562;47.524;12.404;2023-08-07T01:24:46;10.20;99.90
41882;DHT22;27562;47.524;12.404;2023-08-07T01:32:35;10.20;99.90
41882;DHT22;27562;47.524;12.404;2023-08-07T01:35:02;10.20;99.90
41882;DHT22;27562;47.524;12.404;2023-08-07T01:37:31;10.20;99.90
41882;DHT22;27562;47.524;12.404;2023-08-07T01:39:59;10.20;99.90
41882;DHT22;27562;47.524;12.404;2023-08-07T01:42:26;10.20;99.90
41882;DHT22;27562;47.524;12.404;2023-08-07T01:44:52;10.10;99.90
41882;DHT22;27562;47.524;12.404;2023-08-07T01:47:18;10.10;99.90
41882;DHT22;27562;47.524;12.404;2023-08-07T01:49:43;10.10;99.90
41882;DHT22;27562;47.524;12.404;2023-08-07T01:52:09;10.10;99.90
41882;DHT22;27562;47.524;12.404;2023-08-07T01:54:36;10.10;99.90
41882;DHT22;27562;47.524;12.404;2023-08-07T01:57:02;10.10;99.90
41882;DHT22;27562;47.524;12.404;2023-08-07T01:59:28;10.10;99.90
41882;DHT22;27562;47.524;12.404;2023-08-07T02:01:53;10.10;99.90
41882;DHT22;27562;47.524;12.404;2023-08-07T02:04:19;10.00;99.90
41882;DHT22;27562;47.524;12.404;2023-08-07T02:06:45;9.90;99.90
41882;DHT22;27562;47.524;12.404;2023-08-07T02:09:10;9.90;99.90
41882;DHT22;27562;47.524;12.404;2023-08-07T02:11:36;9.80;99.90
41882;DHT22;27562;47.524;12.404;2023-08-07T02:14:02;9.70;99.90
41882;DHT22;27562;47.524;12.404;2023-08-07T02:16:28;9.80;99.90
41882;DHT22;27562;47.524;12.404;2023-08-07T02:18:53;9.70;99.90
41882;DHT22;27562;47.524;12.404;2023-08-07T02:21:19;9.70;99.90
41882;DHT22;27562;47.524;12.404;2023-08-07T02:23:45;9.70;99.90
41882;DHT22;27562;47.524;12.404;2023-08-07T02:26:10;9.70;99.90
41882;DHT22;27562;47.524;12.404;2023-08-07T02:28:36;9.70;99.90
41882;DHT22;27562;47.524;12.404;2023-08-07T02:31:02;9.60;99.90
41882;DHT22;27562;47.524;12.404;2023-08-07T02:33:27;9.60;99.90
41882;DHT22;27562;47.524;12.404;2023-08-07T02:35:56;9.50;99.90
41882;DHT22;27562;47.524;12.404;2023-08-07T02:38:21;9.50;99.90
41882;DHT22;27562;47.524;12.404;2023-08-07T02:40:47;9.50;99.90
41882;DHT22;27562;47.524;12.404;2023-08-07T02:43:13;9.50;99.90
41882;DHT22;27562;47.524;12.404;2023-08-07T02:45:38;9.50;99.90
41882;DHT22;27562;47.524;12.404;2023-08-07T02:48:04;9.40;99.90
41882;DHT22;27562;47.524;12.404;2023-08-07T02:50:31;9.40;99.90
41882;DHT22;27562;47.524;12.404;2023-08-07T02:52:59;9.40;99.90
41882;DHT22;27562;47.524;12.404;2023-08-07T02:55:24;9.40;99.90
41882;DHT22;27562;47.524;12.404;2023-08-07T02:57:50;9.30;99.90
41882;DHT22;27562;47.524;12.404;2023-08-07T03:00:16;9.40;99.90
41882;DHT22;27562;47.524;12.404;2023-08-07T03:02:42;9.40;99.90
41882;DHT22;27562;47.524;12.404;2023-08-07T03:05:08;9.40;99.90
41882;DHT22;27562;47.524;12.404;2023-08-07T03:07:33;9.40;99.90
41882;DHT22;27562;47.524;12.404;2023-08-07T03:09:59;9.40;99.90
41882;DHT22;27562;47.524;12.404;2023-08-07T03:12:25;9.40;99.90
41882;DHT22;27562;47.524;12.404;2023-08-07T03:14:50;9.40;99.90
41882;DHT22;27562;47.524;12.404;2023-08-07T03:17:16;9.40;99.90
41882;DHT22;27562;47.524;12.404;2023-08-07T03:19:43;9.40;99.90
41882;DHT22;27562;47.524;12.404;2023-08-07T03:22:09;9.40;99.90
41882;DHT22;27562;47.524;12.404;2023-08-07T03:24:34;9.40;99.90
41882;DHT22;27562;47.524;12.404;2023-08-07T03:27:00;9.40;99.90
41882;DHT22;27562;47.524;12.404;2023-08-07T03:29:26;9.40;99.90
41882;DHT22;27562;47.524;12.404;2023-08-07T03:31:52;9.40;99.90
41882;DHT22;27562;47.524;12.404;2023-08-07T03:34:17;9.40;99.90
41882;DHT22;27562;47.524;12.404;2023-08-07T03:36:43;9.40;99.90
41882;DHT22;27562;47.524;12.404;2023-08-07T03:39:09;9.30;99.90
41882;DHT22;27562;47.524;12.404;2023-08-07T03:41:37;9.30;99.90
41882;DHT22;27562;47.524;12.404;2023-08-07T03:44:03;9.30;99.90
41882;DHT22;27562;47.524;12.404;2023-08-07T03:46:28;9.30;99.90
41882;DHT22;27562;47.524;12.404;2023-08-07T03:48:54;9.30;99.90
41882;DHT22;27562;47.524;12.404;2023-08-07T03:51:20;9.30;99.90
41882;DHT22;27562;47.524;12.404;2023-08-07T03:53:45;9.30;99.90
41882;DHT22;27562;47.524;12.404;2023-08-07T03:56:11;9.40;99.90
41882;DHT22;27562;47.524;12.404;2023-08-07T03:58:38;9.30;99.90
41882;DHT22;27562;47.524;12.404;2023-08-07T04:01:04;9.30;99.90
41882;DHT22;27562;47.524;12.404;2023-08-07T04:03:30;9.30;99.90
41882;DHT22;27562;47.524;12.404;2023-08-07T04:05:55;9.30;99.90
41882;DHT22;27562;47.524;12.404;2023-08-07T04:08:21;9.30;99.90
41882;DHT22;27562;47.524;12.404;2023-08-07T04:11:01;9.30;99.90
41882;DHT22;27562;47.524;12.404;2023-08-07T04:13:28;9.30;99.90
41882;DHT22;27562;47.524;12.404;2023-08-07T04:15:53;9.30;99.90
41882;DHT22;27562;47.524;12.404;2023-08-07T04:18:19;9.20;99.90
41882;DHT22;27562;47.524;12.404;2023-08-07T04:20:52;9.20;99.90
41882;DHT22;27562;47.524;12.404;2023-08-07T04:23:18;9.20;99.90
41882;DHT22;27562;47.524;12.404;2023-08-07T04:25:44;9.20;99.90
41882;DHT22;27562;47.524;12.404;2023-08-07T04:28:10;9.10;99.90
41882;DHT22;27562;47.524;12.404;2023-08-07T04:30:35;9.10;99.90
41882;DHT22;27562;47.524;12.404;2023-08-07T04:33:01;9.10;99.90
41882;DHT22;27562;47.524;12.404;2023-08-07T04:35:28;9.10;99.90
41882;DHT22;27562;47.524;12.404;2023-08-07T04:37:53;9.10;99.90
41882;DHT22;27562;47.524;12.404;2023-08-07T04:40:19;9.10;99.90
41882;DHT22;27562;47.524;12.404;2023-08-07T04:42:45;9.10;99.90
41882;DHT22;27562;47.524;12.404;2023-08-07T04:45:10;9.10;99.90
41882;DHT22;27562;47.524;12.404;2023-08-07T04:47:37;9.10;99.90
41882;DHT22;27562;47.524;12.404;2023-08-07T04:50:03;9.10;99.90
41882;DHT22;27562;47.524;12.404;2023-08-07T04:52:29;9.10;99.90
41882;DHT22;27562;47.524;12.404;2023-08-07T04:54:54;9.10;99.90
41882;DHT22;27562;47.524;12.404;2023-08-07T04:57:20;9.10;99.90
41882;DHT22;27562;47.524;12.404;2023-08-07T04:59:46;9.20;99.90
41882;DHT22;27562;47.524;12.404;2023-08-07T05:02:11;9.20;99.90
41882;DHT22;27562;47.524;12.404;2023-08-07T05:04:37;9.30;99.90
41882;DHT22;27562;47.524;12.404;2023-08-07T05:07:03;9.30;99.90
41882;DHT22;27562;47.524;12.404;2023-08-07T05:09:29;9.40;99.90
41882;DHT22;27562;47.524;12.404;2023-08-07T05:11:54;9.40;99.90
41882;DHT22;27562;47.524;12.404;2023-08-07T05:14:20;9.40;99.90
41882;DHT22;27562;47.524;12.404;2023-08-07T05:16:47;9.40;99.90
41882;DHT22;27562;47.524;12.404;2023-08-07T05:19:13;9.40;99.90
41882;DHT22;27562;47.524;12.404;2023-08-07T05:21:39;9.50;99.90
41882;DHT22;27562;47.524;12.404;2023-08-07T05:24:04;9.50;99.90
41882;DHT22;27562;47.524;12.404;2023-08-07T05:26:31;9.50;99.90
41882;DHT22;27562;47.524;12.404;2023-08-07T05:28:56;9.50;99.90
41882;DHT22;27562;47.524;12.404;2023-08-07T05:31:24;9.50;99.90
41882;DHT22;27562;47.524;12.404;2023-08-07T05:33:50;9.50;99.90
41882;DHT22;27562;47.524;12.404;2023-08-07T05:36:16;9.50;99.90
41882;DHT22;27562;47.524;12.404;2023-08-07T05:38:42;9.50;99.90
41882;DHT22;27562;47.524;12.404;2023-08-07T05:41:09;9.50;99.90
41882;DHT22;27562;47.524;12.404;2023-08-07T05:43:35;9.40;99.90
41882;DHT22;27562;47.524;12.404;2023-08-07T05:46:00;9.40;99.90
41882;DHT22;27562;47.524;12.404;2023-08-07T05:48:26;9.50;99.90
41882;DHT22;27562;47.524;12.404;2023-08-07T05:50:52;9.50;99.90
41882;DHT22;27562;47.524;12.404;2023-08-07T05:53:19;9.50;99.90
41882;DHT22;27562;47.524;12.404;2023-08-07T05:55:44;9.50;99.90
41882;DHT22;27562;47.524;12.404;2023-08-07T05:58:10;9.60;99.90
41882;DHT22;27562;47.524;12.404;2023-08-07T06:00:36;9.60;99.90
41882;DHT22;27562;47.524;12.404;2023-08-07T06:03:01;9.60;99.90
41882;DHT22;27562;47.524;12.404;2023-08-07T06:05:27;9.60;99.90
41882;DHT22;27562;47.524;12.404;2023-08-07T06:07:53;9.60;99.90
41882;DHT22;27562;47.524;12.404;2023-08-07T06:10:18;9.70;99.90
41882;DHT22;27562;47.524;12.404;2023-08-07T06:12:44;9.70;99.90
41882;DHT22;27562;47.524;12.404;2023-08-07T06:15:10;9.80;99.90
41882;DHT22;27562;47.524;12.404;2023-08-07T06:17:36;9.80;99.90
41882;DHT22;27562;47.524;12.404;2023-08-07T06:20:02;9.90;99.90
41882;DHT22;27562;47.524;12.404;2023-08-07T06:22:30;9.90;99.90
41882;DHT22;27562;47.524;12.404;2023-08-07T06:24:55;10.00;99.90
41882;DHT22;27562;47.524;12.404;2023-08-07T06:27:21;10.00;99.90
41882;DHT22;27562;47.524;12.404;2023-08-07T06:29:47;10.00;99.90
41882;DHT22;27562;47.524;12.404;2023-08-07T06:32:13;10.10;99.90
41882;DHT22;27562;47.524;12.404;2023-08-07T06:34:38;10.10;99.90
41882;DHT22;27562;47.524;12.404;2023-08-07T06:37:05;10.20;99.90
41882;DHT22;27562;47.524;12.404;2023-08-07T06:39:31;10.20;99.90
41882;DHT22;27562;47.524;12.404;2023-08-07T06:41:56;10.30;99.90
41882;DHT22;27562;47.524;12.404;2023-08-07T06:44:22;10.30;99.90
41882;DHT22;27562;47.524;12.404;2023-08-07T06:46:48;10.30;99.90
41882;DHT22;27562;47.524;12.404;2023-08-07T06:49:14;10.40;99.90
41882;DHT22;27562;47.524;12.404;2023-08-07T06:51:39;10.50;99.90
41882;DHT22;27562;47.524;12.404;2023-08-07T06:54:05;10.50;99.90
41882;DHT22;27562;47.524;12.404;2023-08-07T06:56:31;10.50;99.90
41882;DHT22;27562;47.524;12.404;2023-08-07T06:58:56;10.50;99.90
41882;DHT22;27562;47.524;12.404;2023-08-07T07:01:22;10.50;99.90
41882;DHT22;27562;47.524;12.404;2023-08-07T07:03:48;10.60;99.90
41882;DHT22;27562;47.524;12.404;2023-08-07T07:06:20;10.60;99.90
41882;DHT22;27562;47.524;12.404;2023-08-07T07:08:46;10.70;99.90
41882;DHT22;27562;47.524;12.404;2023-08-07T07:11:12;10.80;99.90
41882;DHT22;27562;47.524;12.404;2023-08-07T07:13:38;10.90;99.90
41882;DHT22;27562;47.524;12.404;2023-08-07T07:16:03;11.00;99.90
41882;DHT22;27562;47.524;12.404;2023-08-07T07:18:29;11.00;99.90
41882;DHT22;27562;47.524;12.404;2023-08-07T07:20:58;11.10;99.90
41882;DHT22;27562;47.524;12.404;2023-08-07T07:23:25;11.20;99.90
41882;DHT22;27562;47.524;12.404;2023-08-07T07:25:51;11.20;99.90
41882;DHT22;27562;47.524;12.404;2023-08-07T07:28:17;11.30;99.90
41882;DHT22;27562;47.524;12.404;2023-08-07T07:30:42;11.30;99.90
41882;DHT22;27562;47.524;12.404;2023-08-07T07:33:08;11.30;99.90
41882;DHT22;27562;47.524;12.404;2023-08-07T07:35:37;11.40;99.90
41882;DHT22;27562;47.524;12.404;2023-08-07T07:38:04;11.40;99.90
41882;DHT22;27562;47.524;12.404;2023-08-07T07:40:30;11.40;99.90
41882;DHT22;27562;47.524;12.404;2023-08-07T07:42:55;11.40;99.90
41882;DHT22;27562;47.524;12.404;2023-08-07T07:45:21;11.40;99.90
41882;DHT22;27562;47.524;12.404;2023-08-07T07:47:47;11.40;99.90
41882;DHT22;27562;47.524;12.404;2023-08-07T07:50:12;11.40;99.90
41882;DHT22;27562;47.524;12.404;2023-08-07T07:52:39;11.40;99.90
41882;DHT22;27562;47.524;12.404;2023-08-07T07:55:05;11.50;99.90
41882;DHT22;27562;47.524;12.404;2023-08-07T07:57:31;11.50;99.90
41882;DHT22;27562;47.524;12.404;2023-08-07T07:59:58;11.60;99.90
41882;DHT22;27562;47.524;12.404;2023-08-07T08:02:24;11.60;99.90
41882;DHT22;27562;47.524;12.404;2023-08-07T08:04:50;11.60;99.90
41882;DHT22;27562;47.524;12.404;2023-08-07T08:07:16;11.70;99.90
41882;DHT22;27562;47.524;12.404;2023-08-07T08:09:42;11.70;99.90
41882;DHT22;27562;47.524;12.404;2023-08-07T08:12:08;11.80;99.90
41882;DHT22;27562;47.524;12.404;2023-08-07T08:14:34;11.80;99.90
41882;DHT22;27562;47.524;12.404;2023-08-07T08:16:59;11.90;99.90
41882;DHT22;27562;47.524;12.404;2023-08-07T08:19:25;11.90;99.90
41882;DHT22;27562;47.524;12.404;2023-08-07T08:21:51;12.00;99.90
41882;DHT22;27562;47.524;12.404;2023-08-07T08:24:16;12.10;99.90
41882;DHT22;27562;47.524;12.404;2023-08-07T08:26:42;12.20;99.90
41882;DHT22;27562;47.524;12.404;2023-08-07T08:29:08;12.20;99.90
41882;DHT22;27562;47.524;12.404;2023-08-07T08:31:34;12.30;99.90
41882;DHT22;27562;47.524;12.404;2023-08-07T08:34:00;12.30;99.90
41882;DHT22;27562;47.524;12.404;2023-08-07T08:36:25;12.30;99.90
41882;DHT22;27562;47.524;12.404;2023-08-07T08:38:51;12.40;99.90
41882;DHT22;27562;47.524;12.404;2023-08-07T08:41:18;12.40;99.90
41882;DHT22;27562;47.524;12.404;2023-08-07T08:43:46;12.40;99.90
41882;DHT22;27562;47.524;12.404;2023-08-07T08:46:15;12.40;99.90
41882;DHT22;27562;47.524;12.404;2023-08-07T08:48:45;12.50;99.90
41882;DHT22;27562;47.524;12.404;2023-08-07T08:51:13;12.50;99.90
41882;DHT22;27562;47.524;12.404;2023-08-07T08:53:39;12.50;99.90
41882;DHT22;27562;47.524;12.404;2023-08-07T08:56:05;12.50;99.90
41882;DHT22;27562;47.524;12.404;2023-08-07T08:58:32;12.60;99.90
41882;DHT22;27562;47.524;12.404;2023-08-07T09:00:58;12.60;99.90
41882;DHT22;27562;47.524;12.404;2023-08-07T09:03:24;12.80;99.90
41882;DHT22;27562;47.524;12.404;2023-08-07T09:05:52;12.90;99.90
41882;DHT22;27562;47.524;12.404;2023-08-07T09:08:20;13.00;99.90
41882;DHT22;27562;47.524;12.404;2023-08-07T09:10:46;13.10;99.90
41882;DHT22;27562;47.524;12.404;2023-08-07T09:13:14;13.20;99.90
41882;DHT22;27562;47.524;12.404;2023-08-07T09:15:43;13.30;99.90
41882;DHT22;27562;47.524;12.404;2023-08-07T09:18:13;13.30;99.90
41882;DHT22;27562;47.524;12.404;2023-08-07T09:20:39;13.30;99.90
41882;DHT22;27562;47.524;12.404;2023-08-07T09:23:05;13.30;99.90
41882;DHT22;27562;47.524;12.404;2023-08-07T09:25:32;13.20;99.90
41882;DHT22;27562;47.524;12.404;2023-08-07T09:28:01;13.20;99.90
41882;DHT22;27562;47.524;12.404;2023-08-07T09:30:30;13.20;99.90
41882;DHT22;27562;47.524;12.404;2023-08-07T09:33:00;13.20;99.90
41882;DHT22;27562;47.524;12.404;2023-08-07T09:35:26;13.20;99.90
41882;DHT22;27562;47.524;12.404;2023-08-07T09:37:52;13.20;99.90
41882;DHT22;27562;47.524;12.404;2023-08-07T09:40:18;13.30;99.90
41882;DHT22;27562;47.524;12.404;2023-08-07T09:42:44;13.30;99.90
41882;DHT22;27562;47.524;12.404;2023-08-07T09:47:45;13.40;99.90
41882;DHT22;27562;47.524;12.404;2023-08-07T09:50:15;13.50;99.90
41882;DHT22;27562;47.524;12.404;2023-08-07T09:52:47;13.60;99.90
41882;DHT22;27562;47.524;12.404;2023-08-07T09:55:13;13.70;99.90
41882;DHT22;27562;47.524;12.404;2023-08-07T09:57:43;13.90;99.90
41882;DHT22;27562;47.524;12.404;2023-08-07T10:00:13;13.90;99.90
41882;DHT22;27562;47.524;12.404;2023-08-07T10:02:48;13.90;99.90
41882;DHT22;27562;47.524;12.404;2023-08-07T10:05:15;13.90;99.90
41882;DHT22;27562;47.524;12.404;2023-08-07T10:07:41;13.90;99.90
41882;DHT22;27562;47.524;12.404;2023-08-07T10:10:08;13.90;99.90
41882;DHT22;27562;47.524;12.404;2023-08-07T10:12:36;13.80;99.90
41882;DHT22;27562;47.524;12.404;2023-08-07T10:15:03;13.80;99.90
41882;DHT22;27562;47.524;12.404;2023-08-07T10:17:29;13.80;99.90
41882;DHT22;27562;47.524;12.404;2023-08-07T10:19:56;13.80;99.90
41882;DHT22;27562;47.524;12.404;2023-08-07T10:22:27;13.90;99.90
41882;DHT22;27562;47.524;12.404;2023-08-07T10:24:57;14.00;99.90
41882;DHT22;27562;47.524;12.404;2023-08-07T10:27:25;14.10;99.90
41882;DHT22;27562;47.524;12.404;2023-08-07T10:29:52;14.10;99.90
41882;DHT22;27562;47.524;12.404;2023-08-07T10:32:20;14.20;99.90
41882;DHT22;27562;47.524;12.404;2023-08-07T10:34:52;14.20;99.90
41882;DHT22;27562;47.524;12.404;2023-08-07T10:37:42;14.10;99.90
41882;DHT22;27562;47.524;12.404;2023-08-07T10:40:10;14.00;99.90
41882;DHT22;27562;47.524;12.404;2023-08-07T10:45:20;14.00;99.90
41882;DHT22;27562;47.524;12.404;2023-08-07T10:47:57;14.10;99.90
41882;DHT22;27562;47.524;12.404;2023-08-07T10:50:33;14.20;99.90
41882;DHT22;27562;47.524;12.404;2023-08-07T10:53:02;14.30;99.90
41882;DHT22;27562;47.524;12.404;2023-08-07T10:55:43;14.40;99.90
41882;DHT22;27562;47.524;12.404;2023-08-07T10:58:29;14.40;99.90
41882;DHT22;27562;47.524;12.404;2023-08-07T11:04:14;14.60;99.90
41882;DHT22;27562;47.524;12.404;2023-08-07T11:06:42;14.70;99.90
41882;DHT22;27562;47.524;12.404;2023-08-07T11:09:09;14.80;99.90
41882;DHT22;27562;47.524;12.404;2023-08-07T11:11:46;14.90;99.90
41882;DHT22;27562;47.524;12.404;2023-08-07T11:14:17;14.80;99.90
41882;DHT22;27562;47.524;12.404;2023-08-07T11:16:44;14.70;99.90
41882;DHT22;27562;47.524;12.404;2023-08-07T11:19:11;14.60;99.90
41882;DHT22;27562;47.524;12.404;2023-08-07T11:21:37;14.50;99.90
41882;DHT22;27562;47.524;12.404;2023-08-07T11:24:03;14.50;99.90
41882;DHT22;27562;47.524;12.404;2023-08-07T11:26:29;14.60;99.90
41882;DHT22;27562;47.524;12.404;2023-08-07T11:28:55;14.70;99.90
41882;DHT22;27562;47.524;12.404;2023-08-07T11:31:22;14.80;99.90
41882;DHT22;27562;47.524;12.404;2023-08-07T11:33:54;14.90;99.90
41882;DHT22;27562;47.524;12.404;2023-08-07T11:36:20;14.90;99.90
41882;DHT22;27562;47.524;12.404;2023-08-07T11:38:46;14.90;99.90
41882;DHT22;27562;47.524;12.404;2023-08-07T11:41:13;14.80;99.90
41882;DHT22;27562;47.524;12.404;2023-08-07T11:43:40;14.80;99.90
41882;DHT22;27562;47.524;12.404;2023-08-07T11:46:08;14.90;99.90
41882;DHT22;27562;47.524;12.404;2023-08-07T11:48:36;14.90;99.90
41882;DHT22;27562;47.524;12.404;2023-08-07T11:51:03;14.90;99.90
41882;DHT22;27562;47.524;12.404;2023-08-07T11:53:31;15.00;99.90
41882;DHT22;27562;47.524;12.404;2023-08-07T11:55:58;15.10;99.90
41882;DHT22;27562;47.524;12.404;2023-08-07T11:58:27;15.20;99.90
41882;DHT22;27562;47.524;12.404;2023-08-07T12:00:53;15.30;99.90
41882;DHT22;27562;47.524;12.404;2023-08-07T12:03:27;15.50;99.90
41882;DHT22;27562;47.524;12.404;2023-08-07T12:05:55;15.60;99.90
41882;DHT22;27562;47.524;12.404;2023-08-07T12:08:21;15.80;99.90
41882;DHT22;27562;47.524;12.404;2023-08-07T12:11:07;16.10;99.90
41882;DHT22;27562;47.524;12.404;2023-08-07T12:13:33;16.30;99.90
41882;DHT22;27562;47.524;12.404;2023-08-07T12:16:02;16.50;99.90
41882;DHT22;27562;47.524;12.404;2023-08-07T12:18:31;16.60;99.90
41882;DHT22;27562;47.524;12.404;2023-08-07T12:21:02;16.70;99.90
41882;DHT22;27562;47.524;12.404;2023-08-07T12:23:28;16.60;99.90
41882;DHT22;27562;47.524;12.404;2023-08-07T12:25:54;16.40;99.90
41882;DHT22;27562;47.524;12.404;2023-08-07T12:28:20;16.20;99.90
41882;DHT22;27562;47.524;12.404;2023-08-07T12:30:47;16.10;99.90
41882;DHT22;27562;47.524;12.404;2023-08-07T12:33:13;15.90;99.90
41882;DHT22;27562;47.524;12.404;2023-08-07T12:35:40;15.70;99.90
41882;DHT22;27562;47.524;12.404;2023-08-07T12:38:06;15.50;99.90
41882;DHT22;27562;47.524;12.404;2023-08-07T12:40:32;15.30;99.90
41882;DHT22;27562;47.524;12.404;2023-08-07T12:42:58;15.20;99.90
41882;DHT22;27562;47.524;12.404;2023-08-07T12:45:24;15.10;99.90
41882;DHT22;27562;47.524;12.404;2023-08-07T12:47:50;14.90;99.90
41882;DHT22;27562;47.524;12.404;2023-08-07T12:50:16;14.90;99.90
41882;DHT22;27562;47.524;12.404;2023-08-07T12:52:42;14.80;99.90
41882;DHT22;27562;47.524;12.404;2023-08-07T12:55:08;14.70;99.90
41882;DHT22;27562;47.524;12.404;2023-08-07T12:57:33;14.70;99.90
41882;DHT22;27562;47.524;12.404;2023-08-07T12:59:59;14.70;99.90
41882;DHT22;27562;47.524;12.404;2023-08-07T13:02:25;14.70;99.90
41882;DHT22;27562;47.524;12.404;2023-08-07T13:04:50;14.80;99.90
41882;DHT22;27562;47.524;12.404;2023-08-07T13:07:19;14.90;99.90
41882;DHT22;27562;47.524;12.404;2023-08-07T13:09:45;14.90;99.90
41882;DHT22;27562;47.524;12.404;2023-08-07T13:12:11;14.90;99.90
41882;DHT22;27562;47.524;12.404;2023-08-07T13:14:37;15.00;99.90
41882;DHT22;27562;47.524;12.404;2023-08-07T13:17:02;15.00;99.90
41882;DHT22;27562;47.524;12.404;2023-08-07T13:19:28;15.10;99.90
41882;DHT22;27562;47.524;12.404;2023-08-07T13:21:54;15.10;99.90
41882;DHT22;27562;47.524;12.404;2023-08-07T13:24:19;15.20;99.90
41882;DHT22;27562;47.524;12.404;2023-08-07T13:26:45;15.30;99.90
41882;DHT22;27562;47.524;12.404;2023-08-07T13:29:11;15.30;99.90
41882;DHT22;27562;47.524;12.404;2023-08-07T13:31:37;15.30;99.90
41882;DHT22;27562;47.524;12.404;2023-08-07T13:34:03;15.30;99.90
41882;DHT22;27562;47.524;12.404;2023-08-07T13:36:35;15.30;99.90
41882;DHT22;27562;47.524;12.404;2023-08-07T13:39:01;15.30;99.90
41882;DHT22;27562;47.524;12.404;2023-08-07T13:41:27;15.20;99.90
41882;DHT22;27562;47.524;12.404;2023-08-07T13:43:53;15.20;99.90
41882;DHT22;27562;47.524;12.404;2023-08-07T13:46:19;15.10;99.90
41882;DHT22;27562;47.524;12.404;2023-08-07T13:48:46;15.10;99.90
41882;DHT22;27562;47.524;12.404;2023-08-07T13:51:13;15.10;99.90
41882;DHT22;27562;47.524;12.404;2023-08-07T13:53:39;15.20;99.90
41882;DHT22;27562;47.524;12.404;2023-08-07T13:56:06;15.20;99.90
41882;DHT22;27562;47.524;12.404;2023-08-07T13:58:34;15.20;99.90
41882;DHT22;27562;47.524;12.404;2023-08-07T14:01:01;15.30;99.90
41882;DHT22;27562;47.524;12.404;2023-08-07T14:03:28;15.40;99.90
41882;DHT22;27562;47.524;12.404;2023-08-07T14:05:54;15.50;99.90
41882;DHT22;27562;47.524;12.404;2023-08-07T14:08:21;15.50;99.90
41882;DHT22;27562;47.524;12.404;2023-08-07T14:10:47;15.50;99.90
41882;DHT22;27562;47.524;12.404;2023-08-07T14:13:14;15.40;99.90
41882;DHT22;27562;47.524;12.404;2023-08-07T14:15:40;15.30;99.90
41882;DHT22;27562;47.524;12.404;2023-08-07T14:18:07;15.20;99.20
41882;DHT22;27562;47.524;12.404;2023-08-07T14:20:34;15.20;99.20
41882;DHT22;27562;47.524;12.404;2023-08-07T14:22:59;15.10;99.80
41882;DHT22;27562;47.524;12.404;2023-08-07T14:25:25;15.10;98.50
41882;DHT22;27562;47.524;12.404;2023-08-07T14:27:51;15.10;99.20
41882;DHT22;27562;47.524;12.404;2023-08-07T14:30:17;15.10;98.60
41882;DHT22;27562;47.524;12.404;2023-08-07T14:32:42;15.30;99.20
41882;DHT22;27562;47.524;12.404;2023-08-07T14:35:08;15.40;98.60
41882;DHT22;27562;47.524;12.404;2023-08-07T14:37:34;15.40;99.90
41882;DHT22;27562;47.524;12.404;2023-08-07T14:40:01;15.30;99.90
41882;DHT22;27562;47.524;12.404;2023-08-07T14:42:27;15.10;99.90
41882;DHT22;27562;47.524;12.404;2023-08-07T14:44:52;15.10;99.60
41882;DHT22;27562;47.524;12.404;2023-08-07T14:47:18;14.90;99.00
41882;DHT22;27562;47.524;12.404;2023-08-07T14:49:44;14.80;99.90
41882;DHT22;27562;47.524;12.404;2023-08-07T14:52:09;14.70;99.90
41882;DHT22;27562;47.524;12.404;2023-08-07T14:54:35;14.60;99.90
41882;DHT22;27562;47.524;12.404;2023-08-07T14:57:01;14.60;99.90
41882;DHT22;27562;47.524;12.404;2023-08-07T14:59:26;14.50;99.90
41882;DHT22;27562;47.524;12.404;2023-08-07T15:01:52;14.50;99.90
41882;DHT22;27562;47.524;12.404;2023-08-07T15:04:18;14.40;99.90
41882;DHT22;27562;47.524;12.404;2023-08-07T15:06:44;14.40;99.90
41882;DHT22;27562;47.524;12.404;2023-08-07T15:09:13;14.40;99.90
41882;DHT22;27562;47.524;12.404;2023-08-07T15:11:39;14.40;99.90
41882;DHT22;27562;47.524;12.404;2023-08-07T15:14:05;14.40;99.90
41882;DHT22;27562;47.524;12.404;2023-08-07T15:16:31;14.40;99.90
41882;DHT22;27562;47.524;12.404;2023-08-07T15:18:57;14.40;99.90
41882;DHT22;27562;47.524;12.404;2023-08-07T15:21:23;14.40;99.90
41882;DHT22;27562;47.524;12.404;2023-08-07T15:23:48;14.40;99.90
41882;DHT22;27562;47.524;12.404;2023-08-07T15:26:14;14.40;99.90
41882;DHT22;27562;47.524;12.404;2023-08-07T15:28:40;14.30;99.90
41882;DHT22;27562;47.524;12.404;2023-08-07T15:31:06;14.20;99.90
41882;DHT22;27562;47.524;12.404;2023-08-07T15:33:32;14.20;99.90